KMWL/MWL METAR and TAF weather

Enter ICAO airport designator
Station Type Date Time Source
KMWL METAR 2019/10/19 06:50 UTC NOAA

KMWL 190650Z AUTO 14004KT 9SM FEW050 SCT100 OVC120 16/09 A2972 RMK AO2 RAE49 SLP054 P0000 T01610089


Station Type Date Time Source
KMWL Decoded METAR 2019/10/19 06:50 UTC NOAA

MINERAL WELLS AIRPORT, TX, United States (KMWL) 32-47N 098-04W 284M
Oct 19, 2019 - 02:50 AM EDT / 2019.10.19 0650 UTC
Wind: from the SE (140 degrees) at 5 MPH (4 KT):0
Visibility: 9 mile(s):0
Sky conditions: overcast
Precipitation last hour: A trace
Temperature: 61.0 F (16.1 C)
Dew Point: 48.0 F (8.9 C)
Relative Humidity: 62%
Pressure (altimeter): 29.72 in. Hg (1006 hPa)
ob: KMWL 190650Z AUTO 14004KT 9SM FEW050 SCT100 OVC120 16/09 A2972 RMK AO2 RAE49 SLP054 P0000 T01610089
cycle: 7

Station Type Date Time Source
KMWL TAF UTC NOAA

Error!

Example: see airport list